Time;durP1;ratioP1;P1;durP2;ratioP2;P2;SDS_P1;SDS_P2;PMS_P1;PMS_P2;Temp;Humidity;BMP_temperature;BMP_pressure;BME280_temperature;BME280_humidity;BME280_pressure;Samples;Min_cycle;Max_cycle;Signal;HPM_P1;HPM_P2
2021/01/31 00:00:16;;;;;;;0.60;0.60;;;-7.70;99.90;;;;;;5056142;28;20208;-84
2021/01/31 00:02:42;;;;;;;0.70;0.70;;;-7.80;99.90;;;;;;5056597;28;20208;-84
2021/01/31 00:05:09;;;;;;;0.60;0.60;;;-7.90;99.90;;;;;;5056868;28;20201;-84
2021/01/31 00:07:36;;;;;;;0.68;0.68;;;-7.90;99.90;;;;;;5057337;28;20648;-84
2021/01/31 00:10:04;;;;;;;0.60;0.60;;;-7.90;99.90;;;;;;5056758;28;20207;-84
2021/01/31 00:12:30;;;;;;;0.60;0.60;;;-7.90;99.90;;;;;;5055536;28;20547;-84
2021/01/31 00:30:31;;;;;;;0.60;0.60;;;-8.30;99.90;;;;;;5806149;22;20235;-84
2021/01/31 00:32:58;;;;;;;0.65;0.65;;;-8.40;99.90;;;;;;5057557;28;20204;-85
2021/01/31 00:35:28;;;;;;;0.60;0.60;;;-8.50;99.90;;;;;;5060339;28;20192;-84
2021/01/31 00:37:54;;;;;;;0.60;0.60;;;-7.60;99.90;;;;;;5062143;28;20224;-85
2021/01/31 00:40:20;;;;;;;0.60;0.60;;;-8.50;99.90;;;;;;5062349;28;20204;-84
2021/01/31 00:42:47;;;;;;;0.60;0.60;;;-8.50;99.90;;;;;;5062853;28;20220;-85
2021/01/31 00:45:16;;;;;;;0.60;0.60;;;-8.50;99.90;;;;;;5062710;28;20700;-85
2021/01/31 00:47:44;;;;;;;0.65;0.65;;;-8.40;99.90;;;;;;5067377;28;20210;-85
2021/01/31 00:50:14;;;;;;;0.70;0.70;;;-8.30;99.90;;;;;;5060390;28;20289;-84
2021/01/31 00:52:40;;;;;;;0.60;0.60;;;-8.40;99.90;;;;;;5056337;28;20244;-84
2021/01/31 00:55:06;;;;;;;0.60;0.60;;;-8.30;99.90;;;;;;5057423;28;20205;-84
2021/01/31 00:57:33;;;;;;;0.65;0.65;;;-8.40;99.90;;;;;;5055594;28;20223;-84
2021/01/31 00:59:59;;;;;;;0.70;0.70;;;-8.20;99.90;;;;;;5055495;28;20197;-84
2021/01/31 01:02:25;;;;;;;0.60;0.60;;;-8.30;99.90;;;;;;5055342;28;20200;-84
2021/01/31 01:04:52;;;;;;;0.70;0.70;;;-8.20;99.90;;;;;;5055048;28;20223;-83
2021/01/31 01:17:42;;;;;;;0.60;0.60;;;-8.00;99.90;;;;;;5923289;22;20240;-85
2021/01/31 01:20:12;;;;;;;0.70;0.70;;;-8.20;99.90;;;;;;5055235;28;20227;-84
2021/01/31 01:22:38;;;;;;;0.60;0.60;;;-8.30;99.90;;;;;;5055539;28;20197;-85
2021/01/31 01:25:06;;;;;;;0.60;0.60;;;-8.20;99.90;;;;;;5056332;28;20196;-84
2021/01/31 01:27:33;;;;;;;0.60;0.60;;;-8.10;99.90;;;;;;5061623;28;20553;-85
2021/01/31 01:29:59;;;;;;;0.60;0.60;;;-8.00;99.90;;;;;;5061384;28;20660;-84
2021/01/31 01:32:26;;;;;;;0.60;0.60;;;-8.10;99.90;;;;;;5062225;28;20208;-84
2021/01/31 01:34:52;;;;;;;0.60;0.60;;;-7.10;99.90;;;;;;5062318;28;20208;-84
2021/01/31 01:37:20;;;;;;;0.70;0.70;;;-8.10;99.90;;;;;;5059867;28;20218;-84
2021/01/31 01:39:46;;;;;;;0.60;0.60;;;-8.10;99.90;;;;;;5054519;28;20227;-84
2021/01/31 01:42:13;;;;;;;0.60;0.60;;;-8.00;99.90;;;;;;5054967;28;20717;-85
2021/01/31 01:44:40;;;;;;;0.60;0.60;;;-8.10;99.90;;;;;;5054463;28;20200;-85
2021/01/31 01:47:09;;;;;;;0.60;0.60;;;-7.30;99.90;;;;;;5057317;28;20594;-85
2021/01/31 01:49:38;;;;;;;0.60;0.60;;;-8.40;99.90;;;;;;5056357;28;20278;-84
2021/01/31 01:52:10;;;;;;;0.70;0.70;;;-8.50;99.90;;;;;;5056698;28;20200;-84
2021/01/31 01:54:41;;;;;;;0.60;0.60;;;-8.60;99.90;;;;;;5056934;28;20216;-85
2021/01/31 01:57:12;;;;;;;0.70;0.70;;;-8.50;99.90;;;;;;5057198;28;20207;-85
2021/01/31 01:59:40;;;;;;;0.60;0.60;;;-8.40;99.90;;;;;;5064081;28;20255;-85
2021/01/31 02:17:56;;;;;;;0.60;0.60;;;-8.50;99.90;;;;;;5057039;28;20209;-85
2021/01/31 02:46:48;;;;;;;0.60;0.60;;;-9.10;99.90;;;;;;6033922;22;21261;-87
2021/01/31 02:49:16;;;;;;;0.60;0.60;;;-9.20;99.90;;;;;;5066486;28;20200;-88
2021/01/31 02:52:10;;;;;;;0.60;0.60;;;-9.20;99.90;;;;;;5040386;28;20184;-86
2021/01/31 03:49:59;;;;;;;0.60;0.60;;;-8.90;99.90;;;;;;5074190;23;20227;-83
2021/01/31 03:52:26;;;;;;;0.60;0.60;;;-8.80;99.90;;;;;;5009771;23;20240;-83
2021/01/31 03:54:53;;;;;;;0.60;0.60;;;-8.90;99.90;;;;;;4955284;28;20217;-83
2021/01/31 03:57:25;;;;;;;0.60;0.60;;;-8.30;99.90;;;;;;4952498;29;20215;-85
2021/01/31 03:59:57;;;;;;;0.70;0.70;;;-9.00;99.90;;;;;;4936438;29;20240;-85
2021/01/31 04:02:31;;;;;;;0.60;0.60;;;-9.10;99.90;;;;;;4936293;29;20211;-85
2021/01/31 04:05:02;;;;;;;0.60;0.60;;;-7.50;99.90;;;;;;4943946;29;20238;-85
2021/01/31 04:07:30;;;;;;;0.60;0.60;;;-8.20;99.90;;;;;;4956438;29;20189;-85
2021/01/31 04:10:01;;;;;;;0.60;0.60;;;-9.40;99.90;;;;;;4959396;29;20215;-85
2021/01/31 04:12:32;;;;;;;0.70;0.70;;;-9.40;99.90;;;;;;4958203;29;20208;-86
2021/01/31 04:15:09;;;;;;;0.60;0.60;;;-9.30;99.90;;;;;;4958312;29;20196;-85
2021/01/31 04:17:40;;;;;;;0.60;0.60;;;-8.80;99.90;;;;;;4959406;29;20206;-85
2021/01/31 04:20:09;;;;;;;0.70;0.70;;;-9.30;99.90;;;;;;4959832;29;20219;-85
2021/01/31 04:22:36;;;;;;;0.60;0.60;;;-9.20;99.90;;;;;;4960080;29;20277;-84
2021/01/31 04:25:03;;;;;;;0.70;0.70;;;-9.20;99.90;;;;;;4960454;28;20188;-85
2021/01/31 05:23:53;;;;;;;0.60;0.60;;;-10.00;99.90;;;;;;5122130;23;20244;-86
2021/01/31 05:26:24;;;;;;;0.70;0.70;;;;;;;;;;5462812;23;20202;-87
2021/01/31 05:29:05;;;;;;;0.60;0.60;;;-10.00;99.90;;;;;;4959989;28;20216;-85
2021/01/31 05:31:42;;;;;;;0.60;0.60;;;-9.90;99.90;;;;;;4961701;28;20204;-86
2021/01/31 06:08:01;;;;;;;0.70;0.70;;;-9.90;99.90;;;;;;5378983;23;20592;-85
2021/01/31 06:10:29;;;;;;;0.70;0.70;;;-9.90;99.90;;;;;;4968578;29;20656;-86
2021/01/31 06:13:07;;;;;;;0.70;0.70;;;-9.60;99.90;;;;;;4966156;29;20222;-88
2021/01/31 06:15:47;;;;;;;0.60;0.60;;;-7.60;99.90;;;;;;4953851;29;20680;-87
2021/01/31 06:39:14;;;;;;;0.60;0.60;;;-9.90;99.90;;;;;;5202546;23;20240;-85
2021/01/31 06:42:07;;;;;;;;;;;;;;;;;;;;;
2021/01/31 07:08:44;;;;;;;0.70;0.70;;;-9.00;99.90;;;;;;5217809;23;20238;-83
2021/01/31 07:11:31;;;;;;;0.70;0.70;;;-9.50;99.90;;;;;;4977424;28;20214;-84
2021/01/31 07:14:25;;;;;;;0.60;0.60;;;-8.50;99.90;;;;;;4977695;28;20226;-84
2021/01/31 07:16:59;;;;;;;0.60;0.60;;;-9.20;99.90;;;;;;4978914;28;20211;-85
2021/01/31 07:19:33;;;;;;;0.60;0.60;;;-10.20;99.90;;;;;;4973370;28;20238;-84
2021/01/31 07:22:04;;;;;;;0.60;0.60;;;-10.30;99.90;;;;;;4989399;28;20199;-84
2021/01/31 07:24:48;;;;;;;0.60;0.60;;;-6.70;99.90;;;;;;4974287;28;20215;-83
2021/01/31 07:27:21;;;;;;;0.70;0.70;;;-10.30;99.90;;;;;;4989465;28;20289;-84
2021/01/31 07:29:56;;;;;;;0.60;0.60;;;-10.40;99.90;;;;;;4966629;28;20195;-83
2021/01/31 07:32:28;;;;;;;0.68;0.68;;;-10.40;99.90;;;;;;4970592;28;20195;-83
2021/01/31 07:35:01;;;;;;;0.60;0.60;;;-9.20;99.90;;;;;;4971572;28;20275;-82
2021/01/31 07:37:30;;;;;;;0.70;0.70;;;-10.50;99.90;;;;;;4971852;28;20588;-85
2021/01/31 07:40:07;;;;;;;0.60;0.60;;;-10.50;99.90;;;;;;4971590;28;20235;-83
2021/01/31 07:42:37;;;;;;;0.70;0.70;;;-10.40;99.90;;;;;;4973349;28;20210;-83
2021/01/31 07:45:09;;;;;;;0.60;0.60;;;-10.10;99.90;;;;;;4975121;28;20277;-83
2021/01/31 07:47:39;;;;;;;0.70;0.70;;;;;;;;;;5300569;23;20232;-87
2021/01/31 07:50:22;;;;;;;0.70;0.70;;;-10.00;99.90;;;;;;4923341;29;20280;-84
2021/01/31 07:52:54;;;;;;;0.70;0.70;;;-10.00;99.90;;;;;;4932775;29;20204;-85
2021/01/31 07:55:42;;;;;;;0.70;0.70;;;-9.70;99.90;;;;;;4929673;29;20205;-85
2021/01/31 07:58:42;;;;;;;0.60;0.60;;;-6.40;99.90;;;;;;4940969;29;20220;-85
2021/01/31 08:07:00;;;;;;;0.60;0.60;;;-9.20;99.90;;;;;;5319717;23;20232;-84
2021/01/31 08:12:50;;;;;;;0.70;0.70;;;-8.90;99.90;;;;;;5469557;23;20239;-86
2021/01/31 08:15:42;;;;;;;0.60;0.60;;;-8.50;99.90;;;;;;5089540;23;20248;-83
2021/01/31 08:20:47;;;;;;;0.60;0.60;;;-8.50;99.90;;;;;;4928882;29;20213;-86
2021/01/31 08:23:49;;;;;;;0.60;0.60;;;-9.30;99.90;;;;;;4931732;29;20219;-84
2021/01/31 08:26:47;;;;;;;0.60;0.60;;;-8.60;99.90;;;;;;4855588;29;20203;-86
2021/01/31 08:34:35;;;;;;;0.60;0.60;;;-7.30;99.90;;;;;;5656540;23;20239;-86
2021/01/31 09:05:58;;;;;;;0.60;0.60;;;-6.60;99.90;;;;;;4560524;23;20236;-87
2021/01/31 09:08:26;;;;;;;0.60;0.60;;;-6.40;99.90;;;;;;4901419;29;20604;-88
2021/01/31 09:10:55;;;;;;;0.60;0.60;;;-4.70;99.90;;;;;;4930558;29;20208;-87
2021/01/31 09:13:27;;;;;;;0.60;0.60;;;-5.70;99.90;;;;;;4936566;29;20236;-87
2021/01/31 09:15:54;;;;;;;0.60;0.60;;;-7.00;99.90;;;;;;4935712;29;20573;-86
2021/01/31 09:18:25;;;;;;;0.60;0.60;;;-6.30;99.90;;;;;;4935898;29;20228;-87
2021/01/31 09:20:52;;;;;;;0.60;0.60;;;-5.60;99.90;;;;;;4923812;29;20208;-87
2021/01/31 09:23:28;;;;;;;0.60;0.60;;;-6.20;99.90;;;;;;4935075;29;20263;-89
2021/01/31 09:25:56;;;;;;;0.60;0.60;;;-3.40;99.90;;;;;;4938791;29;20212;-87
2021/01/31 09:28:26;;;;;;;0.60;0.60;;;-6.50;99.90;;;;;;4930588;29;20260;-89
2021/01/31 09:30:57;;;;;;;0.60;0.60;;;-5.40;99.90;;;;;;4935272;29;20718;-89
2021/01/31 09:33:29;;;;;;;0.50;0.50;;;-5.70;99.90;;;;;;4933869;29;20201;-88
2021/01/31 09:36:14;;;;;;;0.60;0.60;;;-4.80;99.90;;;;;;4932655;29;20276;-87
2021/01/31 09:38:40;;;;;;;0.60;0.60;;;-4.70;99.90;;;;;;4935649;29;20228;-87
2021/01/31 09:41:09;;;;;;;0.50;0.50;;;-5.30;99.90;;;;;;4933545;29;20215;-87
2021/01/31 09:43:36;;;;;;;0.60;0.60;;;-4.90;99.90;;;;;;4932095;29;20196;-88
2021/01/31 09:46:07;;;;;;;0.60;0.60;;;-4.50;99.90;;;;;;4928987;29;20204;-87
2021/01/31 09:48:34;;;;;;;0.60;0.60;;;-4.90;99.90;;;;;;4932430;29;20212;-87
2021/01/31 09:51:03;;;;;;;0.60;0.60;;;-2.50;99.90;;;;;;4932889;29;20200;-87
2021/01/31 09:53:36;;;;;;;0.60;0.60;;;-5.30;99.90;;;;;;4933619;29;20211;-87
2021/01/31 09:56:06;;;;;;;0.60;0.60;;;-2.90;99.90;;;;;;4933428;29;20204;-87
2021/01/31 09:58:38;;;;;;;0.60;0.60;;;-4.20;99.90;;;;;;4933258;29;20232;-87
2021/01/31 10:01:11;;;;;;;0.50;0.50;;;-4.10;99.90;;;;;;4933616;29;20213;-87
2021/01/31 10:03:38;;;;;;;0.60;0.60;;;-3.50;99.90;;;;;;4935476;29;20282;-85
2021/01/31 10:06:07;;;;;;;0.60;0.60;;;-4.00;99.90;;;;;;4934232;29;20243;-85
2021/01/31 10:08:34;;;;;;;0.50;0.50;;;-4.20;99.90;;;;;;4934464;29;20204;-85
2021/01/31 10:11:25;;;;;;;0.50;0.50;;;-1.70;99.90;;;;;;4935414;29;20207;-85
2021/01/31 10:13:53;;;;;;;0.60;0.60;;;-2.70;99.90;;;;;;4935331;29;20223;-85
2021/01/31 10:16:22;;;;;;;0.50;0.50;;;-3.60;99.90;;;;;;4935384;29;20695;-85
2021/01/31 10:18:49;;;;;;;0.55;0.55;;;-2.30;99.90;;;;;;4935233;29;20226;-86
2021/01/31 10:21:22;;;;;;;0.60;0.60;;;-2.20;99.90;;;;;;4935352;29;20197;-85
2021/01/31 10:23:52;;;;;;;0.50;0.50;;;-2.80;99.90;;;;;;4935288;29;20563;-87
2021/01/31 10:26:22;;;;;;;0.50;0.50;;;-3.50;99.90;;;;;;4935182;29;20712;-87
2021/01/31 10:28:54;;;;;;;0.60;0.60;;;-3.10;99.90;;;;;;4934843;29;20279;-87
2021/01/31 10:31:28;;;;;;;0.60;0.60;;;-3.00;99.90;;;;;;4935405;29;20205;-87
2021/01/31 10:33:57;;;;;;;0.60;0.60;;;-3.30;99.90;;;;;;4934875;29;20211;-86
2021/01/31 10:36:30;;;;;;;0.60;0.60;;;-0.60;99.90;;;;;;4928693;29;20212;-86
2021/01/31 10:38:59;;;;;;;0.60;0.60;;;-2.80;99.90;;;;;;4930240;29;20311;-89
2021/01/31 10:41:37;;;;;;;0.50;0.50;;;-2.80;99.90;;;;;;4927006;29;20248;-87
2021/01/31 10:44:06;;;;;;;0.50;0.50;;;-2.40;99.90;;;;;;4934399;29;20267;-88
2021/01/31 10:46:35;;;;;;;0.60;0.60;;;-3.70;99.90;;;;;;4932483;29;20633;-88
2021/01/31 10:49:01;;;;;;;0.60;0.60;;;-1.90;99.90;;;;;;4933599;29;20193;-88
2021/01/31 10:51:51;;;;;;;0.50;0.50;;;-1.20;99.90;;;;;;4934162;29;20209;-88
2021/01/31 10:54:27;;;;;;;0.60;0.60;;;-2.80;99.90;;;;;;4932928;29;20256;-88
2021/01/31 10:57:02;;;;;;;0.60;0.60;;;-3.70;99.90;;;;;;4931790;29;20572;-87
2021/01/31 10:59:34;;;;;;;0.50;0.50;;;-2.10;99.90;;;;;;4933509;29;20686;-88
2021/01/31 11:02:13;;;;;;;0.50;0.50;;;-0.70;99.90;;;;;;4933821;29;20771;-88
2021/01/31 11:05:07;;;;;;;0.50;0.50;;;-2.80;99.90;;;;;;4934664;29;20208;-88
2021/01/31 11:07:54;;;;;;;0.50;0.50;;;-2.10;99.90;;;;;;4932745;29;20233;-88
2021/01/31 11:10:37;;;;;;;0.50;0.50;;;-1.60;99.90;;;;;;4933691;29;20200;-86
2021/01/31 11:13:47;;;;;;;0.60;0.60;;;-1.30;99.90;;;;;;4931723;29;20216;-86
2021/01/31 11:16:46;;;;;;;0.50;0.50;;;-3.70;99.90;;;;;;4931949;29;20223;-86
2021/01/31 11:19:36;;;;;;;0.57;0.57;;;0.30;99.90;;;;;;4935963;29;20316;-86
2021/01/31 11:22:52;;;;;;;0.60;0.60;;;-1.80;99.90;;;;;;4935235;29;20205;-86
2021/01/31 11:25:27;;;;;;;0.50;0.50;;;-3.00;99.90;;;;;;4869250;29;20220;-85
2021/01/31 11:28:03;;;;;;;0.60;0.60;;;0.30;99.90;;;;;;4938295;29;20199;-86
2021/01/31 11:31:00;;;;;;;0.60;0.60;;;-1.20;99.90;;;;;;4938695;29;20222;-87
2021/01/31 11:33:54;;;;;;;0.52;0.52;;;0.00;99.90;;;;;;4916088;29;20228;-86
2021/01/31 11:52:55;;;;;;;0.50;0.50;;;1.10;99.90;;;;;;4962192;29;20236;-86
2021/01/31 12:16:12;;;;;;;0.60;0.60;;;1.90;99.90;;;;;;5603622;23;20247;-83
2021/01/31 12:18:38;;;;;;;0.60;0.60;;;3.40;99.90;;;;;;4930358;29;20228;-83
2021/01/31 12:21:04;;;;;;;0.60;0.60;;;2.10;99.90;;;;;;4937340;29;20263;-84
2021/01/31 12:23:30;;;;;;;0.60;0.60;;;1.80;99.90;;;;;;4939009;29;20204;-83
2021/01/31 12:25:57;;;;;;;0.60;0.60;;;2.30;99.90;;;;;;4942559;29;20250;-84
2021/01/31 12:28:23;;;;;;;0.60;0.60;;;2.40;99.90;;;;;;4941807;29;20250;-84
2021/01/31 12:30:49;;;;;;;0.60;0.60;;;2.90;99.90;;;;;;4931644;29;20238;-83
2021/01/31 12:33:16;;;;;;;0.60;0.60;;;1.90;99.90;;;;;;4949780;29;20424;-83
2021/01/31 12:35:43;;;;;;;0.60;0.60;;;1.80;99.90;;;;;;4937452;29;20235;-84
2021/01/31 12:38:09;;;;;;;0.60;0.60;;;2.70;99.90;;;;;;4933997;29;20280;-84
2021/01/31 12:40:35;;;;;;;0.60;0.60;;;4.00;99.90;;;;;;4934253;29;20620;-83
2021/01/31 12:43:01;;;;;;;0.60;0.60;;;2.40;99.90;;;;;;4933802;29;20352;-83
2021/01/31 12:45:28;;;;;;;0.60;0.60;;;2.40;99.90;;;;;;4937714;29;20224;-84
2021/01/31 12:47:55;;;;;;;0.60;0.60;;;2.40;99.90;;;;;;4932956;29;20209;-83
2021/01/31 12:50:26;;;;;;;0.60;0.60;;;2.10;99.90;;;;;;4923387;29;20225;-84
2021/01/31 12:52:52;;;;;;;0.60;0.60;;;3.60;99.90;;;;;;4913596;29;20212;-84
2021/01/31 12:55:18;;;;;;;0.60;0.60;;;2.20;99.90;;;;;;4914353;29;20684;-84
2021/01/31 12:57:44;;;;;;;0.60;0.60;;;2.10;99.90;;;;;;4914588;29;20303;-85
2021/01/31 13:00:15;;;;;;;0.60;0.60;;;2.10;99.90;;;;;;4914236;29;20256;-84
2021/01/31 13:02:41;;;;;;;0.60;0.60;;;2.00;99.90;;;;;;4914944;29;20213;-84
2021/01/31 13:05:09;;;;;;;0.60;0.60;;;1.90;99.90;;;;;;4913525;29;20792;-84
2021/01/31 13:07:40;;;;;;;0.60;0.60;;;2.00;99.90;;;;;;4916738;29;20209;-84
2021/01/31 13:10:10;;;;;;;0.60;0.60;;;2.10;99.90;;;;;;4916496;29;20212;-83
2021/01/31 13:12:36;;;;;;;0.60;0.60;;;2.00;99.90;;;;;;4915843;29;20205;-83
2021/01/31 13:15:04;;;;;;;0.60;0.60;;;1.90;99.90;;;;;;4914127;29;20653;-84
2021/01/31 13:17:33;;;;;;;0.60;0.60;;;1.70;99.90;;;;;;4914508;29;20914;-83
2021/01/31 13:19:59;;;;;;;0.60;0.60;;;1.60;99.90;;;;;;4911358;29;20235;-83
2021/01/31 13:22:25;;;;;;;0.60;0.60;;;1.40;99.90;;;;;;4913149;29;20216;-83
2021/01/31 13:24:53;;;;;;;0.60;0.60;;;1.20;99.90;;;;;;4912661;29;20580;-83
2021/01/31 13:27:20;;;;;;;0.52;0.52;;;1.10;99.90;;;;;;4913707;29;20209;-83
2021/01/31 13:29:46;;;;;;;0.52;0.52;;;0.90;99.90;;;;;;4913636;29;20208;-83
2021/01/31 13:32:12;;;;;;;0.60;0.60;;;0.90;99.90;;;;;;4915768;29;20216;-83
2021/01/31 13:34:41;;;;;;;0.60;0.60;;;1.10;99.90;;;;;;4933217;29;20213;-84
2021/01/31 13:37:11;;;;;;;0.60;0.60;;;1.00;99.90;;;;;;5085612;23;20243;-88
2021/01/31 13:39:39;;;;;;;0.52;0.52;;;0.50;99.90;;;;;;4956066;28;20227;-87
2021/01/31 14:33:50;;;;;;;0.60;0.60;;;1.50;99.90;;;;;;4796020;29;20191;-88
2021/01/31 14:36:42;;;;;;;0.60;0.60;;;-0.60;99.90;;;;;;4826004;29;20278;-90
2021/01/31 14:42:55;;;;;;;0.60;0.60;;;1.10;99.90;;;;;;4876619;29;20293;-89
2021/01/31 14:45:37;;;;;;;0.60;0.60;;;0.60;99.90;;;;;;4877134;29;20214;-89
2021/01/31 14:48:22;;;;;;;0.50;0.50;;;0.00;99.90;;;;;;4881746;29;20213;-89
2021/01/31 14:50:52;;;;;;;0.57;0.57;;;-0.10;99.90;;;;;;4893214;29;20693;-88
2021/01/31 14:53:33;;;;;;;0.60;0.60;;;-1.70;99.90;;;;;;4927209;29;20226;-90
2021/01/31 14:56:00;;;;;;;0.60;0.60;;;0.90;99.90;;;;;;4955370;28;20278;-88
2021/01/31 14:58:27;;;;;;;0.60;0.60;;;-1.00;99.90;;;;;;4955266;29;20238;-88
2021/01/31 15:01:14;;;;;;;0.60;0.60;;;-0.30;99.90;;;;;;4955515;29;20238;-88
2021/01/31 15:03:47;;;;;;;0.60;0.60;;;-0.40;99.90;;;;;;4955107;29;20246;-88
2021/01/31 15:06:24;;;;;;;0.60;0.60;;;-1.60;99.90;;;;;;4955192;29;20266;-88
2021/01/31 15:08:54;;;;;;;0.60;0.60;;;-0.50;99.90;;;;;;4954841;29;20222;-88
2021/01/31 15:11:39;;;;;;;0.60;0.60;;;-0.80;99.90;;;;;;4955108;29;20215;-88
2021/01/31 15:14:08;;;;;;;0.60;0.60;;;-0.60;99.90;;;;;;4954594;29;20218;-88
2021/01/31 15:16:40;;;;;;;0.60;0.60;;;-2.20;99.90;;;;;;4954730;29;20305;-88
2021/01/31 15:19:15;;;;;;;0.60;0.60;;;-0.10;99.90;;;;;;4954799;29;20307;-88
2021/01/31 15:21:42;;;;;;;0.60;0.60;;;-1.60;99.90;;;;;;4954868;29;20286;-89
2021/01/31 15:24:09;;;;;;;0.60;0.60;;;0.10;99.90;;;;;;4954735;29;20235;-88
2021/01/31 15:26:36;;;;;;;0.60;0.60;;;-1.70;99.90;;;;;;4954923;29;20211;-89
2021/01/31 15:29:23;;;;;;;0.60;0.60;;;0.30;99.90;;;;;;4953558;29;20200;-89
2021/01/31 15:31:53;;;;;;;0.60;0.60;;;-1.50;99.90;;;;;;4952756;29;20210;-89
2021/01/31 15:34:27;;;;;;;0.60;0.60;;;-3.00;99.90;;;;;;4953550;29;20200;-89
2021/01/31 15:36:57;;;;;;;0.60;0.60;;;-1.30;99.90;;;;;;4954049;29;20634;-88
2021/01/31 15:42:32;;;;;;;0.60;0.60;;;-0.50;99.90;;;;;;4952217;29;20682;-88
2021/01/31 15:45:10;;;;;;;0.60;0.60;;;-2.00;99.90;;;;;;4954668;29;20302;-89
2021/01/31 15:47:39;;;;;;;0.60;0.60;;;-1.80;99.90;;;;;;4954245;29;20655;-89
2021/01/31 15:50:24;;;;;;;0.60;0.60;;;2.40;99.90;;;;;;4954504;29;20231;-88
2021/01/31 15:52:57;;;;;;;0.60;0.60;;;-0.90;99.90;;;;;;4954025;29;20219;-89
2021/01/31 15:55:25;;;;;;;0.52;0.52;;;1.00;99.90;;;;;;4954165;29;20686;-88
2021/01/31 15:57:51;;;;;;;0.60;0.60;;;-2.30;99.90;;;;;;4954904;29;20230;-88
2021/01/31 16:03:09;;;;;;;0.60;0.60;;;-2.30;99.90;;;;;;4955839;28;20274;-88
2021/01/31 16:05:40;;;;;;;0.60;0.60;;;0.00;99.90;;;;;;4957521;29;20204;-88
2021/01/31 16:08:10;;;;;;;0.60;0.60;;;-0.20;99.90;;;;;;4957842;29;20216;-87
2021/01/31 16:10:43;;;;;;;0.50;0.50;;;-2.00;99.90;;;;;;4957771;29;20208;-89
2021/01/31 16:13:14;;;;;;;0.60;0.60;;;-0.90;99.90;;;;;;4957411;29;20204;-88
2021/01/31 16:15:43;;;;;;;0.60;0.60;;;-2.40;99.90;;;;;;4957569;29;20218;-88
2021/01/31 16:18:10;;;;;;;0.50;0.50;;;-2.60;99.90;;;;;;4957522;29;20203;-87
2021/01/31 16:20:40;;;;;;;0.60;0.60;;;-2.50;99.90;;;;;;4957490;29;20703;-88
2021/01/31 16:23:07;;;;;;;0.50;0.50;;;-3.80;99.90;;;;;;4957351;29;20631;-88
2021/01/31 16:25:34;;;;;;;0.60;0.60;;;-2.90;99.90;;;;;;4957211;29;20286;-88
2021/01/31 16:28:02;;;;;;;0.60;0.60;;;-1.50;99.90;;;;;;4957303;29;20996;-88
2021/01/31 16:30:31;;;;;;;0.60;0.60;;;-2.20;99.90;;;;;;4956944;29;20754;-88
2021/01/31 16:32:57;;;;;;;0.60;0.60;;;-1.70;99.90;;;;;;4957504;29;20211;-87
2021/01/31 16:35:25;;;;;;;0.60;0.60;;;-3.10;99.90;;;;;;4957179;29;20743;-88
2021/01/31 16:37:51;;;;;;;0.60;0.60;;;-3.00;99.90;;;;;;4957186;29;20266;-88
2021/01/31 16:40:32;;;;;;;0.60;0.60;;;-1.20;99.90;;;;;;4956773;29;20314;-87
2021/01/31 16:43:03;;;;;;;0.60;0.60;;;-2.70;99.90;;;;;;4956660;29;20204;-89
2021/01/31 16:45:43;;;;;;;0.60;0.60;;;-2.80;99.90;;;;;;4956918;29;20212;-87
2021/01/31 16:48:13;;;;;;;0.60;0.60;;;-2.50;99.90;;;;;;4957409;29;20208;-87
2021/01/31 16:50:42;;;;;;;0.70;0.70;;;-3.00;99.90;;;;;;4957226;29;20303;-86
2021/01/31 16:53:09;;;;;;;0.60;0.60;;;-3.00;99.90;;;;;;4957086;29;20242;-87
2021/01/31 16:55:36;;;;;;;0.60;0.60;;;-3.40;99.90;;;;;;4956298;29;20220;-87
2021/01/31 16:58:26;;;;;;;0.60;0.60;;;-3.00;99.90;;;;;;4956624;29;20279;-86
2021/01/31 17:01:01;;;;;;;0.60;0.60;;;-1.80;99.90;;;;;;4956902;28;20203;-87
2021/01/31 17:03:27;;;;;;;0.60;0.60;;;-1.90;99.90;;;;;;4961862;28;20233;-85
2021/01/31 17:05:53;;;;;;;0.50;0.50;;;-3.40;99.90;;;;;;4956930;29;20247;-85
2021/01/31 17:08:21;;;;;;;0.60;0.60;;;-1.60;99.90;;;;;;4957199;29;20227;-86
2021/01/31 17:10:49;;;;;;;0.60;0.60;;;-3.30;99.90;;;;;;4956830;29;20711;-86
2021/01/31 17:13:16;;;;;;;0.60;0.60;;;-3.00;99.90;;;;;;4956496;29;20200;-86
2021/01/31 17:15:48;;;;;;;0.60;0.60;;;-2.00;99.90;;;;;;4957091;28;20299;-86
2021/01/31 17:18:16;;;;;;;0.60;0.60;;;-0.40;99.90;;;;;;4957095;29;20234;-86
2021/01/31 17:20:57;;;;;;;0.60;0.60;;;-3.40;99.90;;;;;;4958785;29;20227;-85
2021/01/31 17:23:25;;;;;;;0.60;0.60;;;-0.80;99.90;;;;;;4958754;29;20215;-85
2021/01/31 17:25:51;;;;;;;0.60;0.60;;;-3.50;99.90;;;;;;4958580;29;20717;-85
2021/01/31 17:28:18;;;;;;;0.60;0.60;;;-1.30;99.90;;;;;;4957854;29;20206;-85
2021/01/31 17:30:44;;;;;;;0.60;0.60;;;-2.30;99.90;;;;;;4959322;29;20649;-85
2021/01/31 17:33:11;;;;;;;0.60;0.60;;;-3.20;99.90;;;;;;4960187;29;20299;-85
2021/01/31 17:35:40;;;;;;;0.60;0.60;;;-1.90;99.90;;;;;;4970156;29;20222;-86
2021/01/31 17:38:07;;;;;;;0.60;0.60;;;-2.80;99.90;;;;;;4970738;29;20239;-85
2021/01/31 17:40:33;;;;;;;0.60;0.60;;;-1.40;99.90;;;;;;4970918;29;20246;-85
2021/01/31 17:43:06;;;;;;;0.60;0.60;;;-2.90;99.90;;;;;;4969243;29;20214;-86
2021/01/31 17:45:35;;;;;;;0.60;0.60;;;-3.60;99.90;;;;;;4937921;28;20215;-86
2021/01/31 17:48:08;;;;;;;0.50;0.50;;;-3.50;99.90;;;;;;4945680;28;20219;-85
2021/01/31 17:50:43;;;;;;;0.60;0.60;;;-2.90;99.90;;;;;;4955621;28;20743;-85
2021/01/31 17:53:09;;;;;;;0.60;0.60;;;-3.10;99.90;;;;;;4954366;29;20293;-85
2021/01/31 17:55:36;;;;;;;0.60;0.60;;;-1.00;99.90;;;;;;4957426;28;20204;-85
2021/01/31 17:58:02;;;;;;;0.60;0.60;;;-3.90;99.90;;;;;;4957477;28;20199;-85
2021/01/31 18:00:34;;;;;;;0.57;0.57;;;-3.80;99.90;;;;;;4965183;29;20227;-84
2021/01/31 18:03:03;;;;;;;0.60;0.60;;;-2.60;99.90;;;;;;4970488;28;20264;-85
2021/01/31 18:05:30;;;;;;;0.60;0.60;;;-0.90;99.90;;;;;;4971307;29;20299;-84
2021/01/31 18:07:57;;;;;;;0.60;0.60;;;-3.20;99.90;;;;;;4965932;29;20207;-84
2021/01/31 18:10:24;;;;;;;0.60;0.60;;;-0.60;99.90;;;;;;4957421;29;20242;-85
2021/01/31 18:12:50;;;;;;;0.60;0.60;;;-3.60;99.90;;;;;;4957001;29;20282;-85
2021/01/31 18:15:18;;;;;;;0.60;0.60;;;-3.00;99.90;;;;;;4956773;29;20698;-85
2021/01/31 18:17:46;;;;;;;0.60;0.60;;;-3.60;99.90;;;;;;4956510;29;20231;-86
2021/01/31 18:20:16;;;;;;;0.60;0.60;;;-1.50;99.90;;;;;;4958610;29;20219;-84
2021/01/31 18:22:42;;;;;;;0.60;0.60;;;-3.90;99.90;;;;;;4958070;28;20212;-85
2021/01/31 18:25:11;;;;;;;0.60;0.60;;;-2.60;99.90;;;;;;4963187;28;20212;-84
2021/01/31 18:27:39;;;;;;;0.60;0.60;;;-3.50;99.90;;;;;;4967594;28;20211;-84
2021/01/31 18:30:08;;;;;;;0.60;0.60;;;-3.70;99.90;;;;;;4965481;28;20215;-84
2021/01/31 18:32:34;;;;;;;0.60;0.60;;;-3.40;99.90;;;;;;4966463;29;20213;-85
2021/01/31 18:35:00;;;;;;;0.60;0.60;;;-3.80;99.90;;;;;;4967354;29;20222;-84
2021/01/31 18:37:27;;;;;;;0.52;0.52;;;-4.20;99.90;;;;;;4966832;29;20231;-84
2021/01/31 18:39:53;;;;;;;0.60;0.60;;;-4.10;99.90;;;;;;4963284;29;20254;-85
2021/01/31 18:42:20;;;;;;;0.60;0.60;;;-3.40;99.90;;;;;;4959553;29;20226;-84
2021/01/31 18:44:47;;;;;;;0.60;0.60;;;-4.20;99.90;;;;;;4964991;29;20238;-84
2021/01/31 18:47:13;;;;;;;0.60;0.60;;;-4.30;99.90;;;;;;4963892;28;20212;-85
2021/01/31 18:49:40;;;;;;;0.57;0.57;;;-4.70;99.90;;;;;;4958263;29;20191;-85
2021/01/31 18:52:16;;;;;;;0.60;0.60;;;-4.60;99.90;;;;;;4955703;29;20272;-85
2021/01/31 18:54:43;;;;;;;0.50;0.50;;;-4.40;99.90;;;;;;4958149;29;20546;-85
2021/01/31 18:57:09;;;;;;;0.60;0.60;;;-4.40;99.90;;;;;;4958230;29;20195;-86
2021/01/31 18:59:37;;;;;;;0.60;0.60;;;-4.80;99.90;;;;;;4954595;28;20238;-86
2021/01/31 19:02:04;;;;;;;0.60;0.60;;;-4.90;99.90;;;;;;4953408;29;20209;-86
2021/01/31 19:04:31;;;;;;;0.60;0.60;;;-3.90;99.90;;;;;;4954274;28;20207;-86
2021/01/31 19:06:58;;;;;;;0.60;0.60;;;-2.90;99.90;;;;;;4956095;29;20286;-86
2021/01/31 19:09:24;;;;;;;0.60;0.60;;;-2.80;99.90;;;;;;4955839;29;20203;-85
2021/01/31 19:11:51;;;;;;;0.60;0.60;;;-4.00;99.90;;;;;;4954747;29;20204;-85
2021/01/31 19:14:20;;;;;;;0.60;0.60;;;-3.60;99.90;;;;;;4954870;29;20243;-86
2021/01/31 19:16:50;;;;;;;0.60;0.60;;;-2.90;99.90;;;;;;4954751;29;20255;-86
2021/01/31 19:19:19;;;;;;;0.60;0.60;;;-4.00;99.90;;;;;;4955945;29;20235;-85
2021/01/31 19:22:01;;;;;;;0.60;0.60;;;-2.00;99.90;;;;;;4953388;28;20207;-86
2021/01/31 19:24:29;;;;;;;0.60;0.60;;;-2.20;99.90;;;;;;4954904;28;20207;-86
2021/01/31 19:26:56;;;;;;;0.60;0.60;;;-4.30;99.90;;;;;;4957403;29;20291;-86
2021/01/31 19:29:22;;;;;;;0.60;0.60;;;-2.10;99.90;;;;;;4957370;29;20243;-86
2021/01/31 19:32:06;;;;;;;0.60;0.60;;;-2.10;99.90;;;;;;4961458;28;20282;-86
2021/01/31 19:34:34;;;;;;;0.60;0.60;;;-3.80;99.90;;;;;;4960909;29;20211;-86
2021/01/31 19:37:10;;;;;;;0.60;0.60;;;-2.80;99.90;;;;;;4960200;28;20788;-86
2021/01/31 19:39:46;;;;;;;0.60;0.60;;;-4.00;99.90;;;;;;4964358;29;20301;-87
2021/01/31 19:42:12;;;;;;;0.60;0.60;;;-4.10;99.90;;;;;;4965929;29;20238;-87
2021/01/31 19:44:41;;;;;;;0.60;0.60;;;-4.60;99.90;;;;;;4963735;29;20584;-86
2021/01/31 19:47:44;;;;;;;0.50;0.50;;;-4.40;99.90;;;;;;4959953;29;20742;-88
2021/01/31 19:50:17;;;;;;;0.60;0.60;;;-4.70;99.90;;;;;;4920729;29;20644;-87
2021/01/31 19:52:53;;;;;;;0.60;0.60;;;-4.40;99.90;;;;;;4957356;29;20207;-87
2021/01/31 19:55:36;;;;;;;0.60;0.60;;;-4.90;99.90;;;;;;4963562;29;20663;-86